Time;durP1;ratioP1;P1;durP2;ratioP2;P2;SDS_P1;SDS_P2;PMS_P1;PMS_P2;Temp;Humidity;BMP_temperature;BMP_pressure;BME280_temperature;BME280_humidity;BME280_pressure;Samples;Min_cycle;Max_cycle;Signal;HPM_P1;HPM_P2
2021/07/25 00:01:08;;;;;;;11.87;10.77;;;;;;;24.96;46.95;94544.23;829271;71;30257;-79
2021/07/25 00:16:09;;;;;;;12.20;11.20;;;;;;;24.87;47.08;94551.86;828476;71;30320;-78
2021/07/25 00:31:15;;;;;;;12.20;11.10;;;;;;;24.74;47.41;94550.09;834225;71;31856;-76
2021/07/25 00:46:15;;;;;;;11.80;10.70;;;;;;;24.78;47.32;94560.27;827581;71;32232;-76
2021/07/25 01:01:11;;;;;;;12.10;11.00;;;;;;;24.79;47.31;94554.50;828529;71;29371;-76
2021/07/25 01:16:10;;;;;;;12.57;11.33;;;;;;;24.73;47.38;94532.44;828532;71;29175;-76
2021/07/25 01:31:26;;;;;;;14.20;12.70;;;;;;;24.28;48.29;94532.58;828437;71;29156;-77
2021/07/25 01:46:22;;;;;;;12.77;11.57;;;;;;;24.31;48.32;94540.44;828351;71;29264;-77
2021/07/25 02:01:20;;;;;;;12.60;11.40;;;;;;;24.35;48.22;94531.84;830292;70;29255;-80
2021/07/25 02:16:22;;;;;;;13.53;12.20;;;;;;;24.23;48.37;94549.03;834256;71;32226;-77
2021/07/25 02:31:15;;;;;;;13.70;12.30;;;;;;;24.29;48.16;94551.56;828350;71;29706;-77
2021/07/25 02:46:31;;;;;;;12.77;11.57;;;;;;;24.12;48.23;94534.20;828436;71;31139;-77
2021/07/25 03:16:09;;;;;;;13.13;11.93;;;;;;;23.99;48.90;94570.50;835237;71;28662;-76
2021/07/25 03:31:09;;;;;;;13.23;12.03;;;;;;;24.05;48.75;94582.42;835856;71;29268;-78
2021/07/25 03:46:10;;;;;;;13.50;12.30;;;;;;;23.53;49.74;94603.75;828874;71;28678;-77
2021/07/25 04:01:15;;;;;;;12.70;11.40;;;;;;;23.78;50.77;94594.66;827819;71;31746;-78
2021/07/25 04:16:19;;;;;;;13.60;12.30;;;;;;;23.71;50.47;94627.28;834089;71;31003;-79
2021/07/25 04:31:13;;;;;;;13.70;12.50;;;;;;;23.37;51.05;94628.66;829806;71;29706;-78
2021/07/25 04:46:20;;;;;;;12.93;11.73;;;;;;;23.49;50.71;94627.06;828372;71;32961;-77
2021/07/25 05:01:18;;;;;;;13.50;12.20;;;;;;;22.63;52.84;94631.36;827299;71;32941;-77
2021/07/25 05:16:33;;;;;;;15.23;13.83;;;;;;;21.70;55.66;94637.89;827404;71;32812;-73
2021/07/25 05:31:21;;;;;;;14.53;12.80;;;;;;;21.52;56.92;94654.36;829199;71;30289;-78
2021/07/25 05:46:17;;;;;;;15.35;13.72;;;;;;;21.77;56.09;94657.47;828087;71;30146;-76
2021/07/25 05:47:21;;;;;;;15.83;14.18;;;;;;;21.77;56.17;94654.03;808560;73;26951;-76
2021/07/25 06:01:21;;;;;;;14.80;13.40;;;;;;;22.27;55.21;94662.91;827634;71;32792;-77
2021/07/25 06:16:34;;;;;;;14.70;13.30;;;;;;;22.89;53.89;94679.28;827627;71;32754;-79
2021/07/25 06:31:10;;;;;;;12.47;11.30;;;;;;;23.96;51.33;94675.20;828482;71;29710;-76
2021/07/25 06:46:29;;;;;;;13.20;11.83;;;;;;;24.59;49.33;94672.13;828270;71;32784;-77
2021/07/25 07:01:29;;;;;;;13.33;12.13;;;;;;;25.08;47.60;94673.34;819840;71;32912;-74
2021/07/25 07:16:24;;;;;;;13.37;12.10;;;;;;;25.54;46.31;94665.50;825013;71;32736;-82
2021/07/25 07:31:22;;;;;;;13.07;11.87;;;;;;;25.33;47.18;94658.72;787244;73;33117;-85
2021/07/25 07:46:20;;;;;;;13.87;12.67;;;;;;;26.58;45.19;94662.19;824644;71;33431;-83
2021/07/25 08:01:13;;;;;;;12.47;11.47;;;;;;;27.44;42.96;94667.38;831275;71;30392;-80
2021/07/25 08:16:17;;;;;;;13.40;12.27;;;;;;;28.31;41.03;94648.17;827244;71;32816;-81
2021/07/25 08:31:34;;;;;;;14.33;12.93;;;;;;;27.66;42.49;94658.61;828556;71;32812;-80
2021/07/25 08:46:22;;;;;;;13.03;11.83;;;;;;;28.33;41.28;94643.73;828312;71;30361;-81
2021/07/25 09:16:09;;;;;;;9.00;8.10;;;;;;;28.37;36.00;94621.53;827938;71;30789;-81
2021/07/25 09:31:14;;;;;;;8.50;7.70;;;;;;;27.96;35.86;94619.52;833940;71;32124;-78
2021/07/25 09:46:09;;;;;;;8.13;7.53;;;;;;;28.51;34.51;94610.63;828995;71;30386;-81
2021/07/25 10:01:42;;;;;;;8.10;7.40;;;;;;;28.62;32.71;94602.41;828234;71;31488;-80
2021/07/25 10:16:18;;;;;;;6.63;6.03;;;;;;;28.77;31.22;94607.06;833942;71;28939;-77
2021/07/25 10:31:17;;;;;;;7.87;7.17;;;;;;;29.26;30.66;94586.08;833990;71;29162;-74
2021/07/25 10:46:17;;;;;;;6.23;5.63;;;;;;;29.39;28.74;94593.05;833879;71;29357;-79
2021/07/25 11:01:19;;;;;;;6.13;5.60;;;;;;;29.63;27.91;94576.89;827201;71;31787;-76
2021/07/25 11:16:32;;;;;;;5.87;5.47;;;;;;;29.94;28.30;94555.36;830121;71;28578;-78
2021/07/25 11:31:24;;;;;;;6.13;5.73;;;;;;;29.90;27.63;94548.48;828679;71;29477;-78
2021/07/25 11:46:33;;;;;;;10.43;8.30;;;;;;;29.69;28.33;94531.97;828624;71;28545;-77
2021/07/25 12:01:19;;;;;;;7.57;6.87;;;;;;;29.70;28.79;94532.14;810893;71;28639;-79
2021/07/25 12:16:14;;;;;;;6.90;6.30;;;;;;;29.40;29.67;94522.94;829075;71;28447;-76
2021/07/25 12:31:29;;;;;;;6.67;6.17;;;;;;;29.54;29.82;94525.44;822420;70;29182;-76
2021/07/25 12:46:11;;;;;;;8.07;7.27;;;;;;;29.27;30.41;94498.98;834858;71;28670;-78
2021/07/25 13:03:44;;;;;;;8.30;7.70;;;;;;;29.30;30.60;94480.02;828291;71;31992;-80
2021/07/25 13:16:21;;;;;;;8.27;7.57;;;;;;;29.33;30.78;94473.77;834083;71;29424;-76
2021/07/25 13:31:18;;;;;;;7.97;7.27;;;;;;;29.41;30.53;94460.16;828154;71;29447;-76
2021/07/25 13:46:30;;;;;;;7.80;7.10;;;;;;;29.39;30.26;94471.38;833797;71;32356;-77
2021/07/25 14:01:25;;;;;;;7.50;6.93;;;;;;;29.42;30.23;94458.97;826992;71;31758;-78
2021/07/25 14:16:28;;;;;;;7.80;7.20;;;;;;;29.29;31.08;94463.60;833777;71;29301;-77
2021/07/25 14:31:12;;;;;;;7.57;6.93;;;;;;;29.31;31.05;94465.31;828472;71;29543;-79
2021/07/25 14:46:29;;;;;;;7.67;7.00;;;;;;;29.35;30.28;94465.27;827284;71;31671;-77
2021/07/25 15:16:09;;;;;;;7.23;6.63;;;;;;;28.90;31.32;94445.23;828073;71;29134;-76
2021/07/25 15:31:20;;;;;;;8.13;7.30;;;;;;;28.94;31.52;94445.95;819071;71;32781;-79
2021/07/25 15:46:23;;;;;;;8.10;7.40;;;;;;;28.83;31.96;94453.42;821261;71;28763;-76
2021/07/25 16:01:20;;;;;;;7.93;7.33;;;;;;;28.79;32.25;94453.46;828362;71;29149;-76
2021/07/25 16:16:25;;;;;;;7.57;6.87;;;;;;;28.65;32.02;94449.59;822038;71;32255;-78
2021/07/25 16:31:40;;;;;;;10.83;10.03;;;;;;;28.58;33.23;94447.00;819643;71;31949;-77
2021/07/25 16:46:14;;;;;;;7.60;7.00;;;;;;;28.35;33.09;94455.91;820715;71;29321;-76
2021/07/25 17:01:25;;;;;;;7.50;6.90;;;;;;;28.26;33.87;94460.25;819495;71;32268;-76
2021/07/25 17:16:26;;;;;;;7.17;6.57;;;;;;;27.83;35.58;94472.21;823477;71;31688;-79
2021/07/25 17:31:28;;;;;;;8.80;6.70;;;;;;;27.55;36.43;94500.94;821343;71;31872;-78
2021/07/25 17:46:22;;;;;;;7.10;6.23;;;;;;;;;;819507;71;29799;-76
2021/07/25 18:01:27;;;;;;;7.27;6.67;;;;;;;26.27;39.76;94470.02;834220;71;31753;-78
2021/07/25 18:16:21;;;;;;;12.57;11.30;;;;;;;26.35;40.03;94538.20;828357;71;31351;-78
2021/07/25 18:31:20;;;;;;;9.93;8.90;;;;;;;26.11;40.96;94551.89;834771;71;29882;-82
2021/07/25 18:46:19;;;;;;;10.03;9.03;;;;;;;25.67;41.88;94561.66;825049;71;31831;-77
2021/07/25 19:01:15;;;;;;;11.67;10.30;;;;;;;25.09;43.43;94574.19;820413;71;32026;-76
2021/07/25 19:16:30;;;;;;;8.80;8.00;;;;;;;24.70;43.92;94584.20;821300;71;31856;-77
2021/07/25 19:31:58;;;;;;;8.17;7.47;;;;;;;24.50;44.76;94611.30;828594;71;32390;-78
2021/07/25 19:46:25;;;;;;;8.90;8.00;;;;;;;24.36;45.06;94614.63;821447;71;31056;-77
2021/07/25 20:01:22;;;;;;;8.50;7.80;;;;;;;24.24;45.96;94609.55;830112;71;31873;-77
2021/07/25 20:16:15;;;;;;;8.73;7.93;;;;;;;24.03;46.74;94622.79;828983;71;29006;-76
2021/07/25 20:31:12;;;;;;;8.67;7.87;;;;;;;23.88;48.24;94622.67;828744;71;28637;-76
2021/07/25 20:46:20;;;;;;;8.73;7.83;;;;;;;23.79;49.53;94637.72;828130;71;31802;-78
2021/07/25 21:16:11;;;;;;;8.67;7.97;;;;;;;24.22;48.28;94662.80;834053;71;30271;-74
2021/07/25 21:31:20;;;;;;;9.87;8.87;;;;;;;24.25;48.75;94674.14;828442;71;31042;-77
2021/07/25 21:46:18;;;;;;;9.30;8.47;;;;;;;24.28;47.33;94680.66;829594;70;32707;-82
2021/07/25 22:16:08;;;;;;;8.90;8.10;;;;;;;24.56;46.29;94668.83;828363;71;29741;-77
2021/07/25 22:31:24;;;;;;;9.43;8.63;;;;;;;24.94;46.63;94682.88;828093;71;30338;-78
2021/07/25 22:46:31;;;;;;;8.50;7.70;;;;;;;25.16;46.19;94683.77;793049;74;33777;-78
2021/07/25 23:01:24;;;;;;;8.40;7.60;;;;;;;25.36;45.01;94680.20;827496;71;32809;-78
2021/07/25 23:16:35;;;;;;;7.90;7.30;;;;;;;24.61;44.15;94688.41;834064;71;29837;-79
2021/07/25 23:31:20;;;;;;;9.67;8.10;;;;;;;24.07;45.00;94695.43;827587;71;33201;-77
2021/07/25 23:46:16;;;;;;;8.20;7.50;;;;;;;23.04;47.31;94689.08;828163;71;30302;-79
